Time,TemperatureF,DewpointF,PressureIn,WindDirection,WindDirectionDegrees,WindSpeedMPH,WindSpeedGustMPH,Humidity,HourlyPrecipIn,Conditions,Clouds,dailyrainin,SolarRadiationWatts/m^2,SoftwareType,DateUTC
2013-04-28 00:01:00,57.9,39.4,30.20,WNW,302,0.0,0.0,50,0.00,,CLR,0.00,0.00,VWS V14.01,2013-04-28 04:01:00,
2013-04-28 00:02:00,57.9,39.4,30.20,WNW,302,0.0,0.0,50,0.00,,CLR,0.00,0.00,VWS V14.01,2013-04-28 04:02:00,
2013-04-28 00:05:00,57.9,39.4,30.20,WNW,301,2.0,2.0,50,0.00,,CLR,0.00,0.00,VWS V14.01,2013-04-28 04:05:00,
2013-04-28 00:10:00,58.0,39.0,30.20,WNW,301,0.0,2.0,49,0.00,,CLR,0.00,0.00,VWS V14.01,2013-04-28 04:10:00,
2013-04-28 00:15:00,58.0,39.0,30.20,WNW,301,0.0,0.0,49,0.00,,CLR,0.00,0.00,VWS V14.01,2013-04-28 04:15:00,
2013-04-28 00:20:00,58.0,39.0,30.20,WNW,301,0.0,2.0,49,0.00,,CLR,0.00,0.00,VWS V14.01,2013-04-28 04:20:00,
2013-04-28 00:25:00,58.2,39.2,30.20,SW,219,0.0,2.0,49,0.00,,CLR,0.00,0.00,VWS V14.01,2013-04-28 04:25:00,
2013-04-28 00:30:00,58.3,39.2,30.20,SSW,212,1.0,2.0,49,0.00,,CLR,0.00,0.00,VWS V14.01,2013-04-28 04:30:00,
2013-04-28 00:35:00,58.3,39.2,30.20,WSW,239,1.0,5.0,49,0.00,,CLR,0.00,0.00,VWS V14.01,2013-04-28 04:35:00,
2013-04-28 00:40:00,58.6,39.5,30.20,SW,217,1.0,7.0,49,0.00,,CLR,0.00,0.00,VWS V14.01,2013-04-28 04:40:00,
2013-04-28 00:45:00,58.9,39.3,30.20,SW,230,3.0,6.0,48,0.00,,CLR,0.00,0.00,VWS V14.01,2013-04-28 04:45:00,
2013-04-28 00:50:00,59.1,38.9,30.20,SW,224,2.0,6.0,47,0.00,,CLR,0.00,0.00,VWS V14.01,2013-04-28 04:50:00,
2013-04-28 00:55:00,59.1,39.5,30.20,SW,216,1.0,5.0,48,0.00,,CLR,0.00,0.00,VWS V14.01,2013-04-28 04:55:00,
2013-04-28 01:01:00,59.1,39.5,30.20,SW,215,0.0,5.0,48,0.00,,CLR,0.00,0.00,VWS V14.01,2013-04-28 05:01:00,
2013-04-28 01:06:00,58.9,39.8,30.20,SW,215,0.0,0.0,49,0.00,,CLR,0.00,0.00,VWS V14.01,2013-04-28 05:06:00,
2013-04-28 01:11:00,58.5,39.4,30.20,SW,215,0.0,2.0,49,0.00,,CLR,0.00,0.00,VWS V14.01,2013-04-28 05:11:00,
2013-04-28 01:16:00,58.2,39.7,30.20,SW,215,0.0,0.0,50,0.00,,CLR,0.00,0.00,VWS V14.01,2013-04-28 05:16:00,
2013-04-28 01:21:00,57.9,39.4,30.19,SW,215,0.0,0.0,50,0.00,,CLR,0.00,0.00,VWS V14.01,2013-04-28 05:21:00,
2013-04-28 01:26:00,57.3,39.8,30.19,SW,215,0.0,1.0,52,0.00,,CLR,0.00,0.00,VWS V14.01,2013-04-28 05:26:00,
2013-04-28 01:31:00,56.8,39.9,30.19,SW,215,0.0,2.0,53,0.00,,CLR,0.00,0.00,VWS V14.01,2013-04-28 05:31:00,
2013-04-28 01:36:00,56.6,40.2,30.18,SSW,206,1.0,2.0,54,0.00,,CLR,0.00,0.00,VWS V14.01,2013-04-28 05:36:00,
2013-04-28 01:41:00,56.6,40.2,30.18,South,188,0.0,3.0,54,0.00,,CLR,0.00,0.00,VWS V14.01,2013-04-28 05:41:00,
2013-04-28 01:46:00,56.6,40.2,30.18,West,268,3.0,6.0,54,0.00,,CLR,0.00,0.00,VWS V14.01,2013-04-28 05:46:00,
2013-04-28 01:51:00,56.8,40.3,30.18,WSW,246,0.0,6.0,54,0.00,,CLR,0.00,0.00,VWS V14.01,2013-04-28 05:51:00,
2013-04-28 01:56:00,56.6,40.2,30.18,WSW,246,0.0,0.0,54,0.00,,CLR,0.00,0.00,VWS V14.01,2013-04-28 05:56:00,
2013-04-28 02:01:00,56.6,40.6,30.18,WSW,246,0.0,1.0,55,0.00,,CLR,0.00,0.00,VWS V14.01,2013-04-28 06:01:00,
2013-04-28 02:06:00,56.5,40.5,30.18,WSW,246,0.0,0.0,55,0.00,,CLR,0.00,0.00,VWS V14.01,2013-04-28 06:06:00,
2013-04-28 02:11:00,56.3,40.4,30.18,WSW,246,1.0,2.0,55,0.00,,CLR,0.00,0.00,VWS V14.01,2013-04-28 06:11:00,
2013-04-28 02:17:00,56.2,40.7,30.18,WSW,246,0.0,0.0,56,0.00,,CLR,0.00,0.00,VWS V14.01,2013-04-28 06:17:00,
2013-04-28 02:22:00,55.9,40.9,30.18,WSW,246,0.0,0.0,57,0.00,,CLR,0.00,0.00,VWS V14.01,2013-04-28 06:22:00,
2013-04-28 02:27:00,55.2,40.7,30.18,WSW,246,0.0,0.0,58,0.00,,CLR,0.00,0.00,VWS V14.01,2013-04-28 06:27:00,
2013-04-28 02:32:00,54.7,41.1,30.17,WSW,246,0.0,0.0,60,0.00,,CLR,0.00,0.00,VWS V14.01,2013-04-28 06:32:00,
2013-04-28 02:37:00,54.3,40.7,30.17,WSW,246,0.0,0.0,60,0.00,,CLR,0.00,0.00,VWS V14.01,2013-04-28 06:37:00,
2013-04-28 02:42:00,53.4,40.7,30.17,WSW,246,0.0,0.0,62,0.00,,CLR,0.00,0.00,VWS V14.01,2013-04-28 06:42:00,
2013-04-28 02:47:00,52.8,41.0,30.16,WSW,246,0.0,0.0,64,0.00,,CLR,0.00,0.00,VWS V14.01,2013-04-28 06:47:00,
2013-04-28 02:52:00,52.3,40.9,30.16,WSW,246,0.0,0.0,65,0.00,,CLR,0.00,0.00,VWS V14.01,2013-04-28 06:52:00,
2013-04-28 02:57:00,51.9,40.9,30.16,WSW,246,0.0,0.0,66,0.00,,CLR,0.00,0.00,VWS V14.01,2013-04-28 06:57:00,
2013-04-28 03:02:00,51.9,40.9,30.15,WSW,246,0.0,0.0,66,0.00,,CLR,0.00,0.00,VWS V14.01,2013-04-28 07:02:00,
2013-04-28 03:07:00,51.8,41.2,30.15,WSW,246,0.0,0.0,67,0.00,,CLR,0.00,0.00,VWS V14.01,2013-04-28 07:07:00,
2013-04-28 03:12:00,51.8,41.2,30.15,WSW,246,0.0,0.0,67,0.00,,CLR,0.00,0.00,VWS V14.01,2013-04-28 07:12:00,
2013-04-28 03:17:00,51.5,40.9,30.15,WSW,246,0.0,0.0,67,0.00,,CLR,0.00,0.00,VWS V14.01,2013-04-28 07:17:00,
2013-04-28 03:22:00,51.2,41.4,30.15,WSW,246,0.0,0.0,69,0.00,,CLR,0.00,0.00,VWS V14.01,2013-04-28 07:22:00,
2013-04-28 03:28:00,50.7,41.3,30.15,WSW,246,0.0,0.0,70,0.00,,CLR,0.00,0.00,VWS V14.01,2013-04-28 07:28:00,
2013-04-28 03:33:00,50.1,41.1,30.15,WSW,246,0.0,0.0,71,0.00,,CLR,0.00,0.00,VWS V14.01,2013-04-28 07:33:00,
2013-04-28 03:38:00,49.7,41.0,30.15,WSW,246,0.0,0.0,72,0.00,,CLR,0.00,0.00,VWS V14.01,2013-04-28 07:38:00,
2013-04-28 03:43:00,49.4,41.1,30.15,WSW,246,0.0,0.0,73,0.00,,CLR,0.00,0.00,VWS V14.01,2013-04-28 07:43:00,
2013-04-28 03:48:00,48.9,40.6,30.16,WSW,246,0.0,0.0,73,0.00,,CLR,0.00,0.00,VWS V14.01,2013-04-28 07:48:00,
2013-04-28 03:53:00,48.6,41.4,30.16,WSW,246,0.0,0.0,76,0.00,,CLR,0.00,0.00,VWS V14.01,2013-04-28 07:53:00,
2013-04-28 03:58:00,48.5,42.0,30.16,WSW,246,0.0,0.0,78,0.00,,CLR,0.00,0.00,VWS V14.01,2013-04-28 07:58:00,
2013-04-28 04:03:00,48.2,42.0,30.15,WSW,246,0.0,0.0,79,0.00,,CLR,0.00,0.00,VWS V14.01,2013-04-28 08:03:00,
2013-04-28 04:08:00,48.2,42.0,30.15,WSW,237,0.0,0.0,79,0.00,,CLR,0.00,0.00,VWS V14.01,2013-04-28 08:08:00,
2013-04-28 04:13:00,48.1,41.9,30.15,WSW,237,0.0,0.0,79,0.00,,CLR,0.00,0.00,VWS V14.01,2013-04-28 08:13:00,
2013-04-28 04:18:00,48.1,41.9,30.16,WSW,237,0.0,0.0,79,0.00,,CLR,0.00,0.00,VWS V14.01,2013-04-28 08:18:00,
2013-04-28 04:23:00,48.2,41.7,30.16,WSW,237,0.0,0.0,78,0.00,,CLR,0.00,0.00,VWS V14.01,2013-04-28 08:23:00,
2013-04-28 04:28:00,48.5,42.0,30.16,SE,136,0.0,0.0,78,0.00,,CLR,0.00,0.00,VWS V14.01,2013-04-28 08:28:00,
2013-04-28 04:33:00,48.8,41.9,30.15,SE,136,0.0,0.0,77,0.00,,CLR,0.00,0.00,VWS V14.01,2013-04-28 08:33:00,
2013-04-28 04:39:00,48.6,42.1,30.15,SE,136,0.0,1.0,78,0.00,,CLR,0.00,0.00,VWS V14.01,2013-04-28 08:39:00,
2013-04-28 04:44:00,48.5,42.3,30.15,SE,136,0.0,0.0,79,0.00,,CLR,0.00,0.00,VWS V14.01,2013-04-28 08:44:00,
2013-04-28 04:49:00,48.5,42.6,30.15,SE,136,0.0,0.0,80,0.00,,CLR,0.00,0.00,VWS V14.01,2013-04-28 08:49:00,
2013-04-28 04:54:00,48.4,42.8,30.15,SE,136,0.0,0.0,81,0.00,,CLR,0.00,0.00,VWS V14.01,2013-04-28 08:54:00,
2013-04-28 04:59:00,48.2,42.7,30.15,SE,136,0.0,0.0,81,0.00,,CLR,0.00,0.00,VWS V14.01,2013-04-28 08:59:00,
2013-04-28 05:04:00,48.2,43.0,30.14,SE,136,0.0,0.0,82,0.00,,CLR,0.00,0.00,VWS V14.01,2013-04-28 09:04:00,
2013-04-28 05:09:00,48.1,42.9,30.14,SE,136,0.0,0.0,82,0.00,,CLR,0.00,0.00,VWS V14.01,2013-04-28 09:09:00,
2013-04-28 05:14:00,48.1,42.9,30.14,SE,136,0.0,0.0,82,0.00,,CLR,0.00,0.00,VWS V14.01,2013-04-28 09:14:00,
2013-04-28 05:19:00,48.1,42.9,30.14,SSW,199,0.0,1.0,82,0.00,,CLR,0.00,0.00,VWS V14.01,2013-04-28 09:19:00,
2013-04-28 05:24:00,49.7,44.8,30.14,SSW,196,2.0,5.0,83,0.00,,CLR,0.00,0.00,VWS V14.01,2013-04-28 09:24:00,
2013-04-28 05:29:00,51.6,45.0,30.14,SW,216,0.0,5.0,78,0.00,,CLR,0.00,0.00,VWS V14.01,2013-04-28 09:29:00,
2013-04-28 05:34:00,51.3,43.7,30.14,WNW,302,0.0,1.0,75,0.00,,CLR,0.00,0.00,VWS V14.01,2013-04-28 09:34:00,
2013-04-28 05:39:00,50.4,43.5,30.14,East,89,0.0,1.0,77,0.00,,CLR,0.00,0.00,VWS V14.01,2013-04-28 09:39:00,
2013-04-28 05:44:00,50.0,43.1,30.14,East,99,1.0,2.0,77,0.00,,CLR,0.00,0.00,VWS V14.01,2013-04-28 09:44:00,
2013-04-28 05:50:00,50.0,43.1,30.14,ENE,69,0.0,3.0,77,0.00,,CLR,0.00,0.00,VWS V14.01,2013-04-28 09:50:00,
2013-04-28 05:55:00,50.3,43.4,30.14,ENE,69,0.0,0.0,77,0.00,,CLR,0.00,0.00,VWS V14.01,2013-04-28 09:55:00,
2013-04-28 06:00:00,50.6,43.3,30.14,SSE,161,0.0,2.0,76,0.00,,CLR,0.00,0.00,VWS V14.01,2013-04-28 10:00:00,
2013-04-28 06:05:00,50.4,43.5,30.15,SSE,161,0.0,0.0,77,0.00,,CLR,0.00,0.00,VWS V14.01,2013-04-28 10:05:00,
2013-04-28 06:10:00,50.4,43.5,30.15,SSE,161,0.0,0.0,77,0.00,,CLR,0.00,0.00,VWS V14.01,2013-04-28 10:10:00,
2013-04-28 06:15:00,50.3,43.4,30.15,West,272,0.0,0.0,77,0.00,,CLR,0.00,0.00,VWS V14.01,2013-04-28 10:15:00,
2013-04-28 06:20:00,50.1,43.5,30.16,West,272,0.0,1.0,78,0.00,,CLR,0.00,0.00,VWS V14.01,2013-04-28 10:20:00,
2013-04-28 06:25:00,50.1,43.5,30.16,West,272,0.0,0.0,78,0.00,,CLR,0.00,5.00,VWS V14.01,2013-04-28 10:25:00,
2013-04-28 06:30:00,50.0,43.4,30.16,West,272,0.0,0.0,78,0.00,,CLR,0.00,7.00,VWS V14.01,2013-04-28 10:30:00,
2013-04-28 06:35:00,50.4,43.8,30.16,WNW,282,2.0,5.0,78,0.00,,CLR,0.00,9.00,VWS V14.01,2013-04-28 10:35:00,
2013-04-28 06:40:00,52.5,45.5,30.16,SW,230,2.0,10.0,77,0.00,,CLR,0.00,9.00,VWS V14.01,2013-04-28 10:40:00,
2013-04-28 06:45:00,54.1,44.9,30.16,SSW,192,2.0,6.0,71,0.00,,CLR,0.00,11.00,VWS V14.01,2013-04-28 10:45:00,
2013-04-28 06:50:00,55.2,45.2,30.15,WSW,237,1.0,8.0,69,0.00,,CLR,0.00,14.00,VWS V14.01,2013-04-28 10:50:00,
2013-04-28 06:55:00,55.9,44.7,30.15,SSW,206,3.0,6.0,66,0.00,,CLR,0.00,19.00,VWS V14.01,2013-04-28 10:55:00,
2013-04-28 07:00:00,56.3,44.7,30.15,WSW,253,0.0,7.0,65,0.00,,CLR,0.00,23.00,VWS V14.01,2013-04-28 11:00:00,
2013-04-28 07:06:00,56.8,44.8,30.15,SSW,213,0.0,7.0,64,0.00,,CLR,0.00,28.00,VWS V14.01,2013-04-28 11:06:00,
2013-04-28 07:11:00,57.1,44.6,30.15,SW,220,5.0,8.0,63,0.00,,CLR,0.00,39.00,VWS V14.01,2013-04-28 11:11:00,
2013-04-28 07:16:00,57.1,44.6,30.15,SW,222,0.0,4.0,63,0.00,,CLR,0.00,42.00,VWS V14.01,2013-04-28 11:16:00,
2013-04-28 07:21:00,57.3,44.8,30.15,WSW,239,7.0,7.0,63,0.00,,CLR,0.00,49.00,VWS V14.01,2013-04-28 11:21:00,
2013-04-28 07:26:00,57.3,44.8,30.15,SW,226,1.0,3.0,63,0.00,,CLR,0.00,60.00,VWS V14.01,2013-04-28 11:26:00,
2013-04-28 07:31:00,57.4,44.9,30.15,SSW,203,2.0,6.0,63,0.00,,CLR,0.00,62.00,VWS V14.01,2013-04-28 11:31:00,
2013-04-28 07:36:00,57.4,44.9,30.15,WNW,299,1.0,5.0,63,0.00,,CLR,0.00,60.00,VWS V14.01,2013-04-28 11:36:00,
2013-04-28 07:41:00,57.6,45.1,30.15,SW,232,2.0,5.0,63,0.00,,CLR,0.00,55.00,VWS V14.01,2013-04-28 11:41:00,
2013-04-28 07:46:00,57.6,45.5,30.15,SSW,202,2.0,7.0,64,0.00,,CLR,0.00,67.00,VWS V14.01,2013-04-28 11:46:00,
2013-04-28 07:51:00,57.7,45.6,30.15,WSW,240,1.0,7.0,64,0.00,,CLR,0.00,63.00,VWS V14.01,2013-04-28 11:51:00,
2013-04-28 07:56:00,57.7,45.6,30.15,SW,217,0.0,5.0,64,0.00,,CLR,0.00,62.00,VWS V14.01,2013-04-28 11:56:00,
2013-04-28 08:01:00,57.7,45.6,30.15,SSW,203,1.0,5.0,64,0.00,,CLR,0.00,74.00,VWS V14.01,2013-04-28 12:01:00,
2013-04-28 08:06:00,57.9,45.8,30.15,SW,229,0.0,5.0,64,0.00,,CLR,0.00,63.00,VWS V14.01,2013-04-28 12:06:00,
2013-04-28 08:11:00,57.9,45.8,30.15,SSW,212,2.0,5.0,64,0.00,,CLR,0.00,55.00,VWS V14.01,2013-04-28 12:11:00,
2013-04-28 08:17:00,58.0,45.5,30.15,SW,224,1.0,8.0,63,0.00,,CLR,0.00,48.00,VWS V14.01,2013-04-28 12:17:00,
2013-04-28 08:22:00,58.2,45.7,30.15,WSW,254,0.0,8.0,63,0.00,,CLR,0.00,49.00,VWS V14.01,2013-04-28 12:22:00,
2013-04-28 08:27:00,58.2,46.1,30.15,West,267,1.0,2.0,64,0.00,,CLR,0.00,53.00,VWS V14.01,2013-04-28 12:27:00,
2013-04-28 08:32:00,58.2,46.1,30.15,South,169,0.0,5.0,64,0.00,,CLR,0.00,48.00,VWS V14.01,2013-04-28 12:32:00,
2013-04-28 08:37:00,58.2,45.7,30.15,SW,233,5.0,8.0,63,0.00,,CLR,0.00,44.00,VWS V14.01,2013-04-28 12:37:00,
2013-04-28 08:42:00,58.3,45.8,30.15,WSW,243,1.0,8.0,63,0.00,,CLR,0.00,42.00,VWS V14.01,2013-04-28 12:42:00,
2013-04-28 08:47:00,58.3,45.8,30.15,SW,220,1.0,8.0,63,0.00,,CLR,0.00,40.00,VWS V14.01,2013-04-28 12:47:00,
2013-04-28 08:52:00,58.3,45.8,30.15,SW,227,0.0,8.0,63,0.00,,CLR,0.00,48.00,VWS V14.01,2013-04-28 12:52:00,
2013-04-28 08:57:00,58.3,45.8,30.15,WSW,246,4.0,8.0,63,0.00,,CLR,0.00,49.00,VWS V14.01,2013-04-28 12:57:00,
2013-04-28 09:02:00,58.3,45.8,30.14,South,191,0.0,2.0,63,0.00,,CLR,0.00,55.00,VWS V14.01,2013-04-28 13:02:00,
2013-04-28 09:07:00,58.3,45.8,30.14,West,275,2.0,6.0,63,0.00,,CLR,0.00,62.00,VWS V14.01,2013-04-28 13:07:00,
2013-04-28 09:12:00,58.3,46.2,30.14,West,268,1.0,3.0,64,0.00,,CLR,0.00,58.00,VWS V14.01,2013-04-28 13:12:00,
2013-04-28 09:17:00,58.3,46.6,30.15,WNW,282,0.0,3.0,65,0.00,,CLR,0.00,65.00,VWS V14.01,2013-04-28 13:17:00,
2013-04-28 09:22:00,58.3,46.2,30.15,WSW,251,1.0,3.0,64,0.00,,CLR,0.00,70.00,VWS V14.01,2013-04-28 13:22:00,
2013-04-28 09:28:00,58.3,45.8,30.15,West,280,2.0,11.0,63,0.00,,CLR,0.00,79.00,VWS V14.01,2013-04-28 13:28:00,
2013-04-28 09:33:00,58.5,46.4,30.16,SW,220,5.0,6.0,64,0.00,,CLR,0.00,79.00,VWS V14.01,2013-04-28 13:33:00,
2013-04-28 09:38:00,58.5,46.4,30.16,West,265,2.0,11.0,64,0.00,,CLR,0.00,81.00,VWS V14.01,2013-04-28 13:38:00,
2013-04-28 09:43:00,58.6,46.5,30.16,SW,233,7.0,8.0,64,0.00,,CLR,0.00,83.00,VWS V14.01,2013-04-28 13:43:00,
2013-04-28 09:48:00,58.5,47.2,30.16,SW,216,5.0,10.0,66,0.00,,CLR,0.00,77.00,VWS V14.01,2013-04-28 13:48:00,
2013-04-28 09:53:00,58.2,48.1,30.16,West,265,2.0,8.0,69,0.00,,CLR,0.00,72.00,VWS V14.01,2013-04-28 13:53:00,
2013-04-28 09:58:00,57.9,47.8,30.16,SW,223,2.0,8.0,69,0.00,,CLR,0.00,65.00,VWS V14.01,2013-04-28 13:58:00,
2013-04-28 10:03:00,57.4,48.5,30.16,SW,233,1.0,3.0,72,0.00,,CLR,0.00,62.00,VWS V14.01,2013-04-28 14:03:00,
2013-04-28 10:08:00,57.1,48.5,30.16,SW,215,4.0,4.0,73,0.01,,CLR,0.01,62.00,VWS V14.01,2013-04-28 14:08:00,
2013-04-28 10:13:00,56.8,49.0,30.16,SW,215,4.0,5.0,75,0.01,,CLR,0.01,65.00,VWS V14.01,2013-04-28 14:13:00,
2013-04-28 10:19:00,56.5,49.0,30.17,SW,216,3.0,5.0,76,0.01,,CLR,0.01,69.00,VWS V14.01,2013-04-28 14:19:00,
2013-04-28 10:24:00,56.2,49.1,30.17,SSE,147,7.0,7.0,77,0.02,,CLR,0.02,69.00,VWS V14.01,2013-04-28 14:24:00,
2013-04-28 10:29:00,56.0,49.6,30.17,SSW,206,1.0,7.0,79,0.02,,CLR,0.02,63.00,VWS V14.01,2013-04-28 14:29:00,
2013-04-28 10:34:00,55.7,50.0,30.17,SSW,202,2.0,2.0,81,0.02,,CLR,0.02,69.00,VWS V14.01,2013-04-28 14:34:00,
2013-04-28 10:39:00,55.6,50.2,30.17,South,188,3.0,4.0,82,0.02,,CLR,0.02,69.00,VWS V14.01,2013-04-28 14:39:00,
2013-04-28 10:44:00,55.3,50.2,30.17,SSW,209,2.0,5.0,83,0.02,,CLR,0.02,62.00,VWS V14.01,2013-04-28 14:44:00,
2013-04-28 10:49:00,55.2,50.5,30.17,SSW,200,2.0,5.0,84,0.03,,CLR,0.03,69.00,VWS V14.01,2013-04-28 14:49:00,
2013-04-28 10:54:00,54.9,50.5,30.17,WSW,246,4.0,6.0,85,0.04,,CLR,0.04,76.00,VWS V14.01,2013-04-28 14:54:00,
2013-04-28 10:59:00,54.9,50.8,30.17,SW,215,3.0,6.0,86,0.04,,CLR,0.04,90.00,VWS V14.01,2013-04-28 14:59:00,
2013-04-28 11:04:00,54.7,50.6,30.17,SW,220,1.0,3.0,86,0.05,,CLR,0.05,86.00,VWS V14.01,2013-04-28 15:04:00,
2013-04-28 11:09:00,54.6,50.8,30.17,SSW,198,2.0,7.0,87,0.06,,CLR,0.06,95.00,VWS V14.01,2013-04-28 15:09:00,
2013-04-28 11:14:00,54.6,51.1,30.17,SSW,213,3.0,5.0,88,0.05,,CLR,0.06,107.00,VWS V14.01,2013-04-28 15:14:00,
2013-04-28 11:19:00,54.4,50.9,30.17,South,185,2.0,8.0,88,0.05,,CLR,0.06,106.00,VWS V14.01,2013-04-28 15:19:00,
2013-04-28 11:24:00,54.4,50.9,30.17,SW,217,0.0,8.0,88,0.05,,CLR,0.07,106.00,VWS V14.01,2013-04-28 15:24:00,
2013-04-28 11:30:00,54.4,50.9,30.17,South,182,3.0,8.0,88,0.06,,CLR,0.08,106.00,VWS V14.01,2013-04-28 15:30:00,
2013-04-28 11:35:00,54.4,51.2,30.17,SSW,195,6.0,6.0,89,0.06,,CLR,0.08,104.00,VWS V14.01,2013-04-28 15:35:00,
2013-04-28 11:40:00,54.4,51.2,30.17,SW,219,1.0,7.0,89,0.06,,CLR,0.08,97.00,VWS V14.01,2013-04-28 15:40:00,
2013-04-28 11:45:00,54.4,51.2,30.17,SW,224,1.0,4.0,89,0.06,,CLR,0.08,97.00,VWS V14.01,2013-04-28 15:45:00,
2013-04-28 11:50:00,54.3,51.1,30.17,WSW,251,1.0,7.0,89,0.07,,CLR,0.09,95.00,VWS V14.01,2013-04-28 15:50:00,
2013-04-28 11:55:00,54.3,51.4,30.17,SSW,212,0.0,5.0,90,0.06,,CLR,0.10,88.00,VWS V14.01,2013-04-28 15:55:00,
2013-04-28 12:00:00,54.3,51.4,30.17,SSW,203,0.0,7.0,90,0.06,,CLR,0.10,91.00,VWS V14.01,2013-04-28 16:00:00,
2013-04-28 12:05:00,54.3,51.4,30.17,WSW,251,0.0,1.0,90,0.05,,CLR,0.10,93.00,VWS V14.01,2013-04-28 16:05:00,
2013-04-28 12:10:00,54.4,51.8,30.17,WSW,251,0.0,1.0,91,0.07,,CLR,0.12,83.00,VWS V14.01,2013-04-28 16:10:00,
2013-04-28 12:15:00,54.4,51.8,30.17,West,271,2.0,2.0,91,0.06,,CLR,0.12,88.00,VWS V14.01,2013-04-28 16:15:00,
2013-04-28 12:20:00,54.3,51.7,30.16,SW,226,0.0,6.0,91,0.07,,CLR,0.13,84.00,VWS V14.01,2013-04-28 16:20:00,
2013-04-28 12:25:00,54.4,51.8,30.16,SW,236,1.0,3.0,91,0.07,,CLR,0.14,86.00,VWS V14.01,2013-04-28 16:25:00,
2013-04-28 12:30:00,54.3,51.7,30.16,SW,236,1.0,3.0,91,0.07,,CLR,0.14,102.00,VWS V14.01,2013-04-28 16:30:00,
2013-04-28 12:35:00,54.1,51.5,30.16,SW,227,0.0,3.0,91,0.07,,CLR,0.15,104.00,VWS V14.01,2013-04-28 16:35:00,
2013-04-28 12:41:00,54.0,51.7,30.16,SW,233,1.0,5.0,92,0.08,,CLR,0.16,118.00,VWS V14.01,2013-04-28 16:41:00,
2013-04-28 12:46:00,53.8,51.5,30.16,WSW,241,0.0,7.0,92,0.08,,CLR,0.16,113.00,VWS V14.01,2013-04-28 16:46:00,
2013-04-28 12:51:00,54.0,51.7,30.15,West,263,1.0,7.0,92,0.08,,CLR,0.16,111.00,VWS V14.01,2013-04-28 16:51:00,
2013-04-28 12:56:00,54.1,51.8,30.15,WSW,258,0.0,2.0,92,0.06,,CLR,0.16,116.00,VWS V14.01,2013-04-28 16:56:00,
2013-04-28 13:01:00,54.1,51.8,30.15,SW,226,0.0,4.0,92,0.06,,CLR,0.16,132.00,VWS V14.01,2013-04-28 17:01:00,
2013-04-28 13:06:00,54.3,52.3,30.15,WSW,257,0.0,3.0,93,0.06,,CLR,0.16,125.00,VWS V14.01,2013-04-28 17:06:00,
2013-04-28 13:11:00,54.1,51.8,30.15,SSE,168,4.0,6.0,92,0.07,,CLR,0.17,130.00,VWS V14.01,2013-04-28 17:11:00,
2013-04-28 13:16:00,54.0,51.7,30.15,SW,227,3.0,7.0,92,0.06,,CLR,0.18,107.00,VWS V14.01,2013-04-28 17:16:00,
2013-04-28 13:21:00,53.7,51.4,30.15,SSW,213,6.0,8.0,92,0.06,,CLR,0.18,109.00,VWS V14.01,2013-04-28 17:21:00,
2013-04-28 13:26:00,53.5,51.2,30.15,SW,222,6.0,7.0,92,0.05,,CLR,0.18,116.00,VWS V14.01,2013-04-28 17:26:00,
2013-04-28 13:32:00,53.4,51.1,30.15,SW,227,1.0,8.0,92,0.05,,CLR,0.18,106.00,VWS V14.01,2013-04-28 17:32:00,
2013-04-28 13:37:00,53.4,51.1,30.15,South,188,6.0,7.0,92,0.04,,CLR,0.18,99.00,VWS V14.01,2013-04-28 17:37:00,
2013-04-28 13:42:00,53.2,50.9,30.15,South,181,2.0,7.0,92,0.05,,CLR,0.19,100.00,VWS V14.01,2013-04-28 17:42:00,
2013-04-28 13:47:00,53.1,50.8,30.15,SW,227,2.0,8.0,92,0.03,,CLR,0.19,100.00,VWS V14.01,2013-04-28 17:47:00,
2013-04-28 13:52:00,53.1,50.8,30.15,West,267,3.0,13.0,92,0.04,,CLR,0.20,95.00,VWS V14.01,2013-04-28 17:52:00,
2013-04-28 13:57:00,52.9,50.6,30.15,SW,234,0.0,12.0,92,0.04,,CLR,0.20,97.00,VWS V14.01,2013-04-28 17:57:00,
2013-04-28 14:02:00,52.8,50.5,30.15,SW,215,6.0,12.0,92,0.04,,CLR,0.20,76.00,VWS V14.01,2013-04-28 18:02:00,
2013-04-28 14:07:00,52.6,50.0,30.15,West,278,5.0,12.0,91,0.04,,CLR,0.20,69.00,VWS V14.01,2013-04-28 18:07:00,
2013-04-28 14:12:00,52.6,50.0,30.15,SW,217,2.0,2.0,91,0.03,,CLR,0.20,77.00,VWS V14.01,2013-04-28 18:12:00,
2013-04-28 14:17:00,52.6,50.0,30.14,SW,236,0.0,6.0,91,0.04,,CLR,0.21,79.00,VWS V14.01,2013-04-28 18:17:00,
2013-04-28 14:22:00,52.6,50.0,30.14,SSW,208,3.0,3.0,91,0.03,,CLR,0.21,86.00,VWS V14.01,2013-04-28 18:22:00,
2013-04-28 14:28:00,52.8,50.5,30.14,SW,216,1.0,5.0,92,0.03,,CLR,0.21,65.00,VWS V14.01,2013-04-28 18:28:00,
2013-04-28 14:33:00,52.8,50.5,30.14,SW,230,3.0,3.0,92,0.03,,CLR,0.21,65.00,VWS V14.01,2013-04-28 18:33:00,
2013-04-28 14:38:00,52.8,50.5,30.14,SSW,198,0.0,3.0,92,0.03,,CLR,0.21,65.00,VWS V14.01,2013-04-28 18:38:00,
2013-04-28 14:43:00,52.8,50.5,30.14,West,275,0.0,2.0,92,0.02,,CLR,0.21,51.00,VWS V14.01,2013-04-28 18:43:00,
2013-04-28 14:48:00,52.8,50.5,30.14,WSW,247,0.0,3.0,92,0.02,,CLR,0.21,51.00,VWS V14.01,2013-04-28 18:48:00,
2013-04-28 14:53:00,52.8,50.5,30.14,South,184,1.0,7.0,92,0.01,,CLR,0.21,51.00,VWS V14.01,2013-04-28 18:53:00,
2013-04-28 14:58:00,52.8,50.5,30.14,SSW,195,2.0,8.0,92,0.01,,CLR,0.21,51.00,VWS V14.01,2013-04-28 18:58:00,
2013-04-28 15:03:00,52.6,50.3,30.13,WSW,239,2.0,8.0,92,0.01,,CLR,0.21,40.00,VWS V14.01,2013-04-28 19:03:00,
2013-04-28 15:08:00,52.5,50.2,30.13,WSW,239,7.0,12.0,92,0.01,,CLR,0.21,40.00,VWS V14.01,2013-04-28 19:08:00,
2013-04-28 15:13:00,52.3,49.8,30.13,SSW,208,10.0,11.0,91,0.01,,CLR,0.21,60.00,VWS V14.01,2013-04-28 19:13:00,
2013-04-28 15:18:00,52.3,49.8,30.13,SW,220,2.0,11.0,91,0.01,,CLR,0.21,60.00,VWS V14.01,2013-04-28 19:18:00,
2013-04-28 15:23:00,52.3,49.8,30.13,SW,227,2.0,5.0,91,0.00,,CLR,0.21,62.00,VWS V14.01,2013-04-28 19:23:00,
2013-04-28 15:28:00,52.3,49.5,30.13,SW,227,1.0,8.0,90,0.00,,CLR,0.21,63.00,VWS V14.01,2013-04-28 19:28:00,
2013-04-28 15:34:00,52.3,49.5,30.12,SSW,203,3.0,6.0,90,0.00,,CLR,0.21,49.00,VWS V14.01,2013-04-28 19:34:00,
2013-04-28 15:39:00,52.3,49.5,30.12,SSW,205,0.0,6.0,90,0.00,,CLR,0.21,44.00,VWS V14.01,2013-04-28 19:39:00,
2013-04-28 15:44:00,52.3,49.5,30.12,SSW,202,0.0,8.0,90,0.00,,CLR,0.21,46.00,VWS V14.01,2013-04-28 19:44:00,
2013-04-28 15:49:00,52.3,49.2,30.12,West,272,4.0,8.0,89,0.00,,CLR,0.21,46.00,VWS V14.01,2013-04-28 19:49:00,
2013-04-28 15:54:00,52.3,48.9,30.12,WSW,257,2.0,7.0,88,0.00,,CLR,0.21,44.00,VWS V14.01,2013-04-28 19:54:00,
2013-04-28 15:59:00,52.3,48.9,30.12,WNW,284,4.0,12.0,88,0.00,,CLR,0.21,39.00,VWS V14.01,2013-04-28 19:59:00,
2013-04-28 16:04:00,52.3,48.2,30.11,SW,222,8.0,14.0,86,0.00,,CLR,0.21,32.00,VWS V14.01,2013-04-28 20:04:00,
2013-04-28 16:09:00,52.5,48.4,30.11,South,191,7.0,14.0,86,0.00,,CLR,0.21,26.00,VWS V14.01,2013-04-28 20:09:00,
2013-04-28 16:14:00,52.5,47.8,30.11,West,278,10.0,12.0,84,0.00,,CLR,0.21,23.00,VWS V14.01,2013-04-28 20:14:00,
2013-04-28 16:19:00,52.6,47.9,30.11,SW,232,1.0,12.0,84,0.00,,CLR,0.21,25.00,VWS V14.01,2013-04-28 20:19:00,
2013-04-28 16:24:00,52.6,47.6,30.11,West,277,1.0,14.0,83,0.00,,CLR,0.21,19.00,VWS V14.01,2013-04-28 20:24:00,
2013-04-28 16:29:00,52.8,47.8,30.11,SSW,196,4.0,14.0,83,0.00,,CLR,0.21,19.00,VWS V14.01,2013-04-28 20:29:00,
2013-04-28 16:34:00,52.9,47.6,30.12,WSW,256,2.0,4.0,82,0.00,,CLR,0.21,26.00,VWS V14.01,2013-04-28 20:34:00,
2013-04-28 16:39:00,52.9,47.2,30.12,South,188,7.0,10.0,81,0.00,,CLR,0.21,40.00,VWS V14.01,2013-04-28 20:39:00,
2013-04-28 16:45:00,53.2,47.5,30.12,WSW,257,1.0,6.0,81,0.00,,CLR,0.21,42.00,VWS V14.01,2013-04-28 20:45:00,
2013-04-28 16:50:00,53.4,47.4,30.11,WSW,257,3.0,6.0,80,0.00,,CLR,0.21,44.00,VWS V14.01,2013-04-28 20:50:00,
2013-04-28 16:55:00,53.4,47.1,30.11,West,270,2.0,10.0,79,0.00,,CLR,0.21,40.00,VWS V14.01,2013-04-28 20:55:00,
2013-04-28 17:00:00,53.5,47.2,30.11,WSW,257,3.0,14.0,79,0.00,,CLR,0.21,32.00,VWS V14.01,2013-04-28 21:00:00,
2013-04-28 17:05:00,53.7,47.0,30.11,NW,309,6.0,8.0,78,0.00,,CLR,0.21,26.00,VWS V14.01,2013-04-28 21:05:00,
2013-04-28 17:10:00,53.8,46.8,30.11,SSW,209,6.0,8.0,77,0.00,,CLR,0.21,32.00,VWS V14.01,2013-04-28 21:10:00,
2013-04-28 17:15:00,54.0,47.0,30.11,SW,216,7.0,13.0,77,0.00,,CLR,0.21,35.00,VWS V14.01,2013-04-28 21:15:00,
2013-04-28 17:20:00,54.0,47.0,30.10,SSW,208,8.0,13.0,77,0.00,,CLR,0.21,30.00,VWS V14.01,2013-04-28 21:20:00,
2013-04-28 17:25:00,54.1,47.1,30.10,North,0,0.0,11.0,77,0.00,,CLR,0.21,40.00,VWS V14.01,2013-04-28 21:25:00,
2013-04-28 17:30:00,54.1,47.1,30.10,West,275,2.0,11.0,77,0.00,,CLR,0.21,33.00,VWS V14.01,2013-04-28 21:30:00,
2013-04-28 17:35:00,54.3,46.9,30.10,WSW,247,1.0,13.0,76,0.00,,CLR,0.21,25.00,VWS V14.01,2013-04-28 21:35:00,
2013-04-28 17:41:00,54.3,46.9,30.10,SSW,213,3.0,13.0,76,0.00,,CLR,0.21,26.00,VWS V14.01,2013-04-28 21:41:00,
2013-04-28 17:46:00,54.3,46.9,30.10,NW,318,3.0,7.0,76,0.00,,CLR,0.21,33.00,VWS V14.01,2013-04-28 21:46:00,
2013-04-28 17:51:00,54.4,46.7,30.09,WSW,251,5.0,7.0,75,0.00,,CLR,0.21,28.00,VWS V14.01,2013-04-28 21:51:00,
2013-04-28 17:56:00,54.4,46.3,30.09,SSW,209,0.0,8.0,74,0.00,,CLR,0.21,25.00,VWS V14.01,2013-04-28 21:56:00,
2013-04-28 18:01:00,54.4,46.3,30.09,WSW,237,0.0,8.0,74,0.00,,CLR,0.21,18.00,VWS V14.01,2013-04-28 22:01:00,
2013-04-28 18:06:00,54.4,46.3,30.10,SW,236,1.0,6.0,74,0.00,,CLR,0.21,21.00,VWS V14.01,2013-04-28 22:06:00,
2013-04-28 18:11:00,54.4,46.3,30.10,WSW,243,1.0,8.0,74,0.00,,CLR,0.21,23.00,VWS V14.01,2013-04-28 22:11:00,
2013-04-28 18:16:00,54.4,45.9,30.10,WSW,243,3.0,3.0,73,0.00,,CLR,0.21,23.00,VWS V14.01,2013-04-28 22:16:00,
2013-04-28 18:21:00,54.4,46.3,30.09,WSW,251,2.0,8.0,74,0.00,,CLR,0.21,18.00,VWS V14.01,2013-04-28 22:21:00,
2013-04-28 18:26:00,54.6,46.1,30.09,WSW,240,3.0,8.0,73,0.00,,CLR,0.21,28.00,VWS V14.01,2013-04-28 22:26:00,
2013-04-28 18:31:00,54.6,45.8,30.07,SSW,200,0.0,10.0,72,0.00,,CLR,0.21,32.00,VWS V14.01,2013-04-28 22:31:00,
2013-04-28 18:36:00,54.6,46.1,30.07,SW,216,0.0,7.0,73,0.00,,CLR,0.21,32.00,VWS V14.01,2013-04-28 22:36:00,
2013-04-28 18:42:00,54.6,45.8,30.07,SSE,164,2.0,12.0,72,0.00,,CLR,0.21,33.00,VWS V14.01,2013-04-28 22:42:00,
2013-04-28 18:47:00,54.6,45.4,30.07,WSW,243,4.0,10.0,71,0.00,,CLR,0.21,30.00,VWS V14.01,2013-04-28 22:47:00,
2013-04-28 18:52:00,54.7,45.1,30.07,WSW,237,1.0,11.0,70,0.00,,CLR,0.21,19.00,VWS V14.01,2013-04-28 22:52:00,
2013-04-28 18:57:00,54.6,45.4,30.07,SSW,206,6.0,9.0,71,0.00,,CLR,0.21,18.00,VWS V14.01,2013-04-28 22:57:00,
2013-04-28 19:02:00,54.6,45.0,30.07,SW,219,11.0,16.0,70,0.00,,CLR,0.21,14.00,VWS V14.01,2013-04-28 23:02:00,
2013-04-28 19:07:00,54.6,45.0,30.07,WSW,246,2.0,8.0,70,0.00,,CLR,0.21,14.00,VWS V14.01,2013-04-28 23:07:00,
2013-04-28 19:12:00,54.6,44.7,30.07,WSW,241,11.0,11.0,69,0.00,,CLR,0.21,12.00,VWS V14.01,2013-04-28 23:12:00,
2013-04-28 19:17:00,54.4,44.5,30.07,SW,234,1.0,14.0,69,0.00,,CLR,0.21,12.00,VWS V14.01,2013-04-28 23:17:00,
2013-04-28 19:22:00,54.4,44.5,30.07,SSW,212,1.0,2.0,69,0.00,,CLR,0.21,9.00,VWS V14.01,2013-04-28 23:22:00,
2013-04-28 19:27:00,54.4,44.5,30.07,WNW,296,1.0,11.0,69,0.00,,CLR,0.21,9.00,VWS V14.01,2013-04-28 23:27:00,
2013-04-28 19:32:00,54.4,44.5,30.07,WSW,258,0.0,1.0,69,0.00,,CLR,0.21,7.00,VWS V14.01,2013-04-28 23:32:00,
2013-04-28 19:37:00,54.3,44.4,30.07,West,267,1.0,11.0,69,0.00,,CLR,0.21,7.00,VWS V14.01,2013-04-28 23:37:00,
2013-04-28 19:43:00,54.4,44.5,30.07,West,278,6.0,6.0,69,0.00,,CLR,0.21,7.00,VWS V14.01,2013-04-28 23:43:00,
2013-04-28 19:48:00,54.4,44.5,30.08,SW,216,3.0,7.0,69,0.00,,CLR,0.21,5.00,VWS V14.01,2013-04-28 23:48:00,
2013-04-28 19:53:00,54.3,44.4,30.08,WNW,298,0.0,3.0,69,0.00,,CLR,0.21,5.00,VWS V14.01,2013-04-28 23:53:00,
2013-04-28 19:58:00,54.3,44.4,30.08,SW,232,2.0,11.0,69,0.00,,CLR,0.21,0.00,VWS V14.01,2013-04-28 23:58:00,
2013-04-28 20:03:00,54.3,44.4,30.09,WSW,258,4.0,8.0,69,0.00,,CLR,0.21,0.00,VWS V14.01,2013-04-29 00:03:00,
2013-04-28 20:08:00,54.3,44.4,30.09,SW,217,0.0,8.0,69,0.00,,CLR,0.21,0.00,VWS V14.01,2013-04-29 00:08:00,
2013-04-28 20:13:00,54.3,44.7,30.09,SE,144,2.0,3.0,70,0.00,,CLR,0.21,0.00,VWS V14.01,2013-04-29 00:13:00,
2013-04-28 20:18:00,54.1,44.5,30.09,WSW,237,5.0,13.0,70,0.00,,CLR,0.21,0.00,VWS V14.01,2013-04-29 00:18:00,
2013-04-28 20:23:00,54.3,44.4,30.09,SW,223,8.0,8.0,69,0.00,,CLR,0.21,0.00,VWS V14.01,2013-04-29 00:23:00,
2013-04-28 20:28:00,54.3,44.4,30.09,WSW,256,1.0,16.0,69,0.00,,CLR,0.21,0.00,VWS V14.01,2013-04-29 00:28:00,
2013-04-28 20:33:00,54.3,44.4,30.08,South,191,6.0,7.0,69,0.00,,CLR,0.21,0.00,VWS V14.01,2013-04-29 00:33:00,
2013-04-28 20:38:00,54.3,44.4,30.08,WSW,257,0.0,7.0,69,0.00,,CLR,0.21,0.00,VWS V14.01,2013-04-29 00:38:00,
2013-04-28 20:44:00,54.1,44.2,30.08,SSW,208,0.0,6.0,69,0.00,,CLR,0.21,0.00,VWS V14.01,2013-04-29 00:44:00,
2013-04-28 20:49:00,54.3,44.4,30.08,South,171,0.0,8.0,69,0.00,,CLR,0.21,0.00,VWS V14.01,2013-04-29 00:49:00,
2013-04-28 20:54:00,54.1,44.5,30.08,SW,220,12.0,12.0,70,0.00,,CLR,0.21,0.00,VWS V14.01,2013-04-29 00:54:00,
2013-04-28 20:59:00,54.3,44.7,30.08,SSW,195,2.0,12.0,70,0.00,,CLR,0.21,0.00,VWS V14.01,2013-04-29 00:59:00,
2013-04-28 21:04:00,54.1,44.9,30.08,WSW,241,0.0,5.0,71,0.00,,CLR,0.21,0.00,VWS V14.01,2013-04-29 01:04:00,
2013-04-28 21:09:00,54.1,44.5,30.08,WSW,240,0.0,7.0,70,0.00,,CLR,0.21,0.00,VWS V14.01,2013-04-29 01:09:00,
2013-04-28 21:14:00,54.0,44.8,30.08,West,263,0.0,1.0,71,0.00,,CLR,0.21,0.00,VWS V14.01,2013-04-29 01:14:00,
2013-04-28 21:19:00,54.0,44.8,30.08,South,171,0.0,10.0,71,0.00,,CLR,0.21,0.00,VWS V14.01,2013-04-29 01:19:00,
2013-04-28 21:24:00,54.0,44.8,30.08,WNW,289,1.0,2.0,71,0.00,,CLR,0.21,0.00,VWS V14.01,2013-04-29 01:24:00,
2013-04-28 21:29:00,53.8,45.0,30.08,West,278,4.0,6.0,72,0.00,,CLR,0.21,0.00,VWS V14.01,2013-04-29 01:29:00,
2013-04-28 21:34:00,53.8,45.0,30.09,WSW,253,2.0,13.0,72,0.00,,CLR,0.21,0.00,VWS V14.01,2013-04-29 01:34:00,
2013-04-28 21:39:00,54.0,45.2,30.09,WSW,237,6.0,13.0,72,0.00,,CLR,0.21,0.00,VWS V14.01,2013-04-29 01:39:00,
2013-04-28 21:44:00,53.8,45.0,30.09,NW,320,0.0,8.0,72,0.00,,CLR,0.21,0.00,VWS V14.01,2013-04-29 01:44:00,
2013-04-28 21:50:00,53.8,45.0,30.09,WSW,244,3.0,12.0,72,0.00,,CLR,0.21,0.00,VWS V14.01,2013-04-29 01:50:00,
2013-04-28 21:55:00,54.0,45.2,30.09,SW,236,2.0,5.0,72,0.00,,CLR,0.21,0.00,VWS V14.01,2013-04-29 01:55:00,
2013-04-28 22:00:00,53.8,45.4,30.09,SW,223,1.0,7.0,73,0.00,,CLR,0.21,0.00,VWS V14.01,2013-04-29 02:00:00,
2013-04-28 22:05:00,53.8,45.4,30.09,WSW,250,1.0,2.0,73,0.00,,CLR,0.21,0.00,VWS V14.01,2013-04-29 02:05:00,
2013-04-28 22:10:00,53.7,45.3,30.09,SSW,212,5.0,8.0,73,0.00,,CLR,0.21,0.00,VWS V14.01,2013-04-29 02:10:00,
2013-04-28 22:15:00,53.7,45.3,30.09,SW,216,4.0,10.0,73,0.00,,CLR,0.21,0.00,VWS V14.01,2013-04-29 02:15:00,
2013-04-28 22:20:00,53.7,45.6,30.09,WSW,254,0.0,10.0,74,0.00,,CLR,0.21,0.00,VWS V14.01,2013-04-29 02:20:00,
2013-04-28 22:25:00,53.7,45.6,30.09,SW,233,3.0,8.0,74,0.00,,CLR,0.21,0.00,VWS V14.01,2013-04-29 02:25:00,
2013-04-28 22:30:00,53.7,45.6,30.09,West,264,5.0,8.0,74,0.00,,CLR,0.21,0.00,VWS V14.01,2013-04-29 02:30:00,
2013-04-28 22:35:00,53.7,45.6,30.09,SW,216,5.0,7.0,74,0.00,,CLR,0.21,0.00,VWS V14.01,2013-04-29 02:35:00,
2013-04-28 22:40:00,53.7,45.6,30.09,West,264,3.0,8.0,74,0.00,,CLR,0.21,0.00,VWS V14.01,2013-04-29 02:40:00,
2013-04-28 22:45:00,53.7,45.6,30.09,SW,230,7.0,7.0,74,0.00,,CLR,0.21,0.00,VWS V14.01,2013-04-29 02:45:00,
2013-04-28 22:50:00,53.5,45.4,30.09,West,268,0.0,7.0,74,0.00,,CLR,0.21,0.00,VWS V14.01,2013-04-29 02:50:00,
2013-04-28 22:55:00,53.5,45.8,30.09,West,264,3.0,7.0,75,0.00,,CLR,0.21,0.00,VWS V14.01,2013-04-29 02:55:00,
2013-04-28 23:01:00,53.5,45.4,30.09,WSW,247,1.0,11.0,74,0.00,,CLR,0.21,0.00,VWS V14.01,2013-04-29 03:01:00,
2013-04-28 23:06:00,53.5,45.4,30.08,West,260,3.0,5.0,74,0.00,,CLR,0.21,0.00,VWS V14.01,2013-04-29 03:06:00,
2013-04-28 23:11:00,53.5,45.8,30.08,SW,233,1.0,7.0,75,0.00,,CLR,0.21,0.00,VWS V14.01,2013-04-29 03:11:00,
2013-04-28 23:16:00,53.5,45.8,30.08,South,188,5.0,10.0,75,0.00,,CLR,0.21,0.00,VWS V14.01,2013-04-29 03:16:00,
2013-04-28 23:21:00,53.7,46.0,30.08,WSW,246,2.0,10.0,75,0.00,,CLR,0.21,0.00,VWS V14.01,2013-04-29 03:21:00,
2013-04-28 23:26:00,53.7,46.0,30.08,SW,233,0.0,3.0,75,0.00,,CLR,0.21,0.00,VWS V14.01,2013-04-29 03:26:00,
2013-04-28 23:31:00,53.5,45.8,30.08,West,277,3.0,6.0,75,0.00,,CLR,0.21,0.00,VWS V14.01,2013-04-29 03:31:00,
2013-04-28 23:36:00,53.5,45.8,30.08,SW,234,1.0,6.0,75,0.00,,CLR,0.21,0.00,VWS V14.01,2013-04-29 03:36:00,
2013-04-28 23:41:00,53.5,45.8,30.08,WSW,247,4.0,8.0,75,0.00,,CLR,0.21,0.00,VWS V14.01,2013-04-29 03:41:00,
2013-04-28 23:46:00,53.5,45.8,30.08,WSW,246,2.0,6.0,75,0.00,,CLR,0.21,0.00,VWS V14.01,2013-04-29 03:46:00,
2013-04-28 23:51:00,53.5,45.8,30.08,SSW,206,3.0,6.0,75,0.00,,CLR,0.21,0.00,VWS V14.01,2013-04-29 03:51:00,
2013-04-28 23:56:00,53.5,46.1,30.08,SW,222,3.0,5.0,76,0.00,,CLR,0.21,0.00,VWS V14.01,2013-04-29 03:56:00,